sensor_id;sensor_type;location;lat;lon;timestamp;P1;durP1;ratioP1;P2;durP2;ratioP2
55069;SDS011;40967;52.070;8.596;2022-08-18T00:01:00;2.63;;;1.73;;
55069;SDS011;40967;52.070;8.596;2022-08-18T00:03:25;2.87;;;1.87;;
55069;SDS011;40967;52.070;8.596;2022-08-18T00:05:53;3.10;;;2.10;;
55069;SDS011;40967;52.070;8.596;2022-08-18T00:08:19;2.23;;;1.70;;
55069;SDS011;40967;52.070;8.596;2022-08-18T00:10:44;2.43;;;1.67;;
55069;SDS011;40967;52.070;8.596;2022-08-18T00:13:10;2.50;;;1.57;;
55069;SDS011;40967;52.070;8.596;2022-08-18T00:15:35;2.10;;;1.50;;
55069;SDS011;40967;52.070;8.596;2022-08-18T00:18:01;2.30;;;1.52;;
55069;SDS011;40967;52.070;8.596;2022-08-18T00:20:27;1.73;;;1.27;;
55069;SDS011;40967;52.070;8.596;2022-08-18T00:22:52;2.50;;;1.70;;
55069;SDS011;40967;52.070;8.596;2022-08-18T00:25:20;2.60;;;1.70;;
55069;SDS011;40967;52.070;8.596;2022-08-18T00:27:46;2.47;;;1.65;;
55069;SDS011;40967;52.070;8.596;2022-08-18T00:30:13;2.40;;;1.63;;
55069;SDS011;40967;52.070;8.596;2022-08-18T00:32:43;2.65;;;1.75;;
55069;SDS011;40967;52.070;8.596;2022-08-18T00:35:16;2.97;;;1.83;;
55069;SDS011;40967;52.070;8.596;2022-08-18T00:37:51;3.23;;;2.10;;
55069;SDS011;40967;52.070;8.596;2022-08-18T00:40:18;2.95;;;2.03;;
55069;SDS011;40967;52.070;8.596;2022-08-18T00:42:50;3.38;;;1.98;;
55069;SDS011;40967;52.070;8.596;2022-08-18T00:45:20;3.20;;;2.10;;
55069;SDS011;40967;52.070;8.596;2022-08-18T00:47:50;3.70;;;2.30;;
55069;SDS011;40967;52.070;8.596;2022-08-18T00:50:17;3.37;;;2.10;;
55069;SDS011;40967;52.070;8.596;2022-08-18T00:53:20;3.95;;;2.50;;
55069;SDS011;40967;52.070;8.596;2022-08-18T00:55:50;3.70;;;2.50;;
55069;SDS011;40967;52.070;8.596;2022-08-18T00:58:22;4.28;;;2.70;;
55069;SDS011;40967;52.070;8.596;2022-08-18T01:00:53;3.47;;;2.30;;
55069;SDS011;40967;52.070;8.596;2022-08-18T01:03:19;3.63;;;2.37;;
55069;SDS011;40967;52.070;8.596;2022-08-18T01:05:47;3.70;;;2.50;;
55069;SDS011;40967;52.070;8.596;2022-08-18T01:08:18;3.17;;;2.10;;
55069;SDS011;40967;52.070;8.596;2022-08-18T01:10:44;3.97;;;2.50;;
55069;SDS011;40967;52.070;8.596;2022-08-18T01:13:09;3.58;;;2.40;;
55069;SDS011;40967;52.070;8.596;2022-08-18T01:15:35;3.97;;;2.47;;
55069;SDS011;40967;52.070;8.596;2022-08-18T01:18:06;6.38;;;4.90;;
55069;SDS011;40967;52.070;8.596;2022-08-18T01:21:11;8.23;;;6.23;;
55069;SDS011;40967;52.070;8.596;2022-08-18T01:24:01;7.65;;;5.88;;
55069;SDS011;40967;52.070;8.596;2022-08-18T01:26:28;5.95;;;4.45;;
55069;SDS011;40967;52.070;8.596;2022-08-18T01:29:02;5.97;;;4.50;;
55069;SDS011;40967;52.070;8.596;2022-08-18T01:31:31;5.28;;;4.07;;
55069;SDS011;40967;52.070;8.596;2022-08-18T01:34:04;6.90;;;5.18;;
55069;SDS011;40967;52.070;8.596;2022-08-18T01:36:31;10.27;;;7.70;;
55069;SDS011;40967;52.070;8.596;2022-08-18T01:39:02;12.63;;;9.63;;
55069;SDS011;40967;52.070;8.596;2022-08-18T01:41:32;10.20;;;8.30;;
55069;SDS011;40967;52.070;8.596;2022-08-18T01:43:58;9.40;;;7.17;;
55069;SDS011;40967;52.070;8.596;2022-08-18T01:46:25;7.85;;;6.22;;
55069;SDS011;40967;52.070;8.596;2022-08-18T01:48:53;10.13;;;7.95;;
55069;SDS011;40967;52.070;8.596;2022-08-18T01:51:19;11.05;;;8.45;;
55069;SDS011;40967;52.070;8.596;2022-08-18T01:53:46;8.57;;;6.70;;
55069;SDS011;40967;52.070;8.596;2022-08-18T01:56:12;8.80;;;6.35;;
55069;SDS011;40967;52.070;8.596;2022-08-18T01:58:41;9.05;;;7.40;;
55069;SDS011;40967;52.070;8.596;2022-08-18T02:01:07;8.85;;;7.00;;
55069;SDS011;40967;52.070;8.596;2022-08-18T02:03:38;7.70;;;5.83;;
55069;SDS011;40967;52.070;8.596;2022-08-18T02:06:12;6.82;;;5.07;;
55069;SDS011;40967;52.070;8.596;2022-08-18T02:08:39;5.57;;;4.30;;
55069;SDS011;40967;52.070;8.596;2022-08-18T02:11:05;5.03;;;3.80;;
55069;SDS011;40967;52.070;8.596;2022-08-18T02:13:31;4.97;;;3.63;;
55069;SDS011;40967;52.070;8.596;2022-08-18T02:15:58;5.70;;;3.87;;
55069;SDS011;40967;52.070;8.596;2022-08-18T02:18:27;5.85;;;4.38;;
55069;SDS011;40967;52.070;8.596;2022-08-18T02:21:03;5.90;;;4.13;;
55069;SDS011;40967;52.070;8.596;2022-08-18T02:23:38;5.80;;;4.20;;
55069;SDS011;40967;52.070;8.596;2022-08-18T02:26:05;6.28;;;4.60;;
55069;SDS011;40967;52.070;8.596;2022-08-18T02:28:32;5.43;;;4.07;;
55069;SDS011;40967;52.070;8.596;2022-08-18T02:31:02;5.20;;;3.50;;
55069;SDS011;40967;52.070;8.596;2022-08-18T02:33:28;4.53;;;3.07;;
55069;SDS011;40967;52.070;8.596;2022-08-18T02:35:54;4.70;;;3.30;;
55069;SDS011;40967;52.070;8.596;2022-08-18T02:38:19;5.25;;;3.65;;
55069;SDS011;40967;52.070;8.596;2022-08-18T02:40:45;4.53;;;3.20;;
55069;SDS011;40967;52.070;8.596;2022-08-18T02:43:10;4.25;;;2.85;;
55069;SDS011;40967;52.070;8.596;2022-08-18T02:45:36;4.27;;;3.00;;
55069;SDS011;40967;52.070;8.596;2022-08-18T02:48:03;4.65;;;3.08;;
55069;SDS011;40967;52.070;8.596;2022-08-18T02:50:29;4.40;;;3.25;;
55069;SDS011;40967;52.070;8.596;2022-08-18T02:52:55;4.03;;;2.87;;
55069;SDS011;40967;52.070;8.596;2022-08-18T02:55:20;4.60;;;3.03;;
55069;SDS011;40967;52.070;8.596;2022-08-18T02:57:47;4.27;;;2.70;;
55069;SDS011;40967;52.070;8.596;2022-08-18T03:00:13;4.13;;;2.70;;
55069;SDS011;40967;52.070;8.596;2022-08-18T03:02:47;4.60;;;3.13;;
55069;SDS011;40967;52.070;8.596;2022-08-18T03:05:15;5.03;;;3.67;;
55069;SDS011;40967;52.070;8.596;2022-08-18T03:07:41;4.85;;;3.42;;
55069;SDS011;40967;52.070;8.596;2022-08-18T03:10:07;5.47;;;3.70;;
55069;SDS011;40967;52.070;8.596;2022-08-18T03:12:34;4.60;;;3.17;;
55069;SDS011;40967;52.070;8.596;2022-08-18T03:14:59;4.83;;;3.30;;
55069;SDS011;40967;52.070;8.596;2022-08-18T03:17:26;5.13;;;3.85;;
55069;SDS011;40967;52.070;8.596;2022-08-18T03:19:52;5.40;;;3.70;;
55069;SDS011;40967;52.070;8.596;2022-08-18T03:22:17;5.13;;;3.60;;
55069;SDS011;40967;52.070;8.596;2022-08-18T03:24:43;5.03;;;3.30;;
55069;SDS011;40967;52.070;8.596;2022-08-18T03:27:08;4.70;;;3.20;;
55069;SDS011;40967;52.070;8.596;2022-08-18T03:29:33;5.17;;;3.67;;
55069;SDS011;40967;52.070;8.596;2022-08-18T03:32:00;5.78;;;4.25;;
55069;SDS011;40967;52.070;8.596;2022-08-18T03:34:27;6.60;;;4.90;;
55069;SDS011;40967;52.070;8.596;2022-08-18T03:36:53;10.45;;;8.25;;
55069;SDS011;40967;52.070;8.596;2022-08-18T03:39:18;7.83;;;5.57;;
55069;SDS011;40967;52.070;8.596;2022-08-18T03:41:47;8.88;;;6.68;;
55069;SDS011;40967;52.070;8.596;2022-08-18T03:44:15;8.65;;;6.72;;
55069;SDS011;40967;52.070;8.596;2022-08-18T03:46:41;9.10;;;7.30;;
55069;SDS011;40967;52.070;8.596;2022-08-18T03:49:07;7.25;;;5.60;;
55069;SDS011;40967;52.070;8.596;2022-08-18T03:51:33;12.13;;;8.97;;
55069;SDS011;40967;52.070;8.596;2022-08-18T03:54:00;8.52;;;6.15;;
55069;SDS011;40967;52.070;8.596;2022-08-18T03:56:28;7.40;;;5.40;;
55069;SDS011;40967;52.070;8.596;2022-08-18T03:59:00;6.50;;;4.85;;
55069;SDS011;40967;52.070;8.596;2022-08-18T04:01:29;6.75;;;4.38;;
55069;SDS011;40967;52.070;8.596;2022-08-18T04:04:00;5.88;;;4.10;;
55069;SDS011;40967;52.070;8.596;2022-08-18T04:06:50;5.90;;;4.18;;
55069;SDS011;40967;52.070;8.596;2022-08-18T04:09:21;6.00;;;4.10;;
55069;SDS011;40967;52.070;8.596;2022-08-18T04:11:48;5.93;;;4.38;;
55069;SDS011;40967;52.070;8.596;2022-08-18T04:14:15;8.07;;;5.93;;
55069;SDS011;40967;52.070;8.596;2022-08-18T04:16:43;7.85;;;6.28;;
55069;SDS011;40967;52.070;8.596;2022-08-18T04:19:09;14.07;;;10.90;;
55069;SDS011;40967;52.070;8.596;2022-08-18T04:21:37;19.17;;;15.05;;
55069;SDS011;40967;52.070;8.596;2022-08-18T04:24:05;16.42;;;12.77;;
55069;SDS011;40967;52.070;8.596;2022-08-18T04:26:38;14.88;;;11.57;;
55069;SDS011;40967;52.070;8.596;2022-08-18T04:29:06;36.20;;;27.85;;
55069;SDS011;40967;52.070;8.596;2022-08-18T04:31:36;31.17;;;24.17;;
55069;SDS011;40967;52.070;8.596;2022-08-18T04:34:01;27.90;;;21.57;;
55069;SDS011;40967;52.070;8.596;2022-08-18T04:36:28;20.08;;;15.80;;
55069;SDS011;40967;52.070;8.596;2022-08-18T04:38:55;18.30;;;13.90;;
55069;SDS011;40967;52.070;8.596;2022-08-18T04:41:23;19.75;;;14.82;;
55069;SDS011;40967;52.070;8.596;2022-08-18T04:43:51;16.60;;;13.25;;
55069;SDS011;40967;52.070;8.596;2022-08-18T04:46:17;14.15;;;10.90;;
55069;SDS011;40967;52.070;8.596;2022-08-18T04:48:42;12.30;;;9.43;;
55069;SDS011;40967;52.070;8.596;2022-08-18T04:51:12;9.97;;;7.77;;
55069;SDS011;40967;52.070;8.596;2022-08-18T04:53:39;13.02;;;10.02;;
55069;SDS011;40967;52.070;8.596;2022-08-18T04:56:16;12.43;;;9.18;;
55069;SDS011;40967;52.070;8.596;2022-08-18T04:58:58;14.50;;;11.65;;
55069;SDS011;40967;52.070;8.596;2022-08-18T05:01:26;16.88;;;13.20;;
55069;SDS011;40967;52.070;8.596;2022-08-18T05:03:54;18.23;;;13.98;;
55069;SDS011;40967;52.070;8.596;2022-08-18T05:06:21;16.80;;;12.95;;
55069;SDS011;40967;52.070;8.596;2022-08-18T05:08:49;18.67;;;14.00;;
55069;SDS011;40967;52.070;8.596;2022-08-18T05:11:16;14.43;;;11.50;;
55069;SDS011;40967;52.070;8.596;2022-08-18T05:13:41;14.77;;;11.73;;
55069;SDS011;40967;52.070;8.596;2022-08-18T05:16:07;15.10;;;11.50;;
55069;SDS011;40967;52.070;8.596;2022-08-18T05:18:33;12.75;;;9.68;;
55069;SDS011;40967;52.070;8.596;2022-08-18T05:21:05;14.57;;;10.40;;
55069;SDS011;40967;52.070;8.596;2022-08-18T05:23:32;17.02;;;12.68;;
55069;SDS011;40967;52.070;8.596;2022-08-18T05:25:58;20.63;;;15.02;;
55069;SDS011;40967;52.070;8.596;2022-08-18T05:28:24;20.25;;;15.10;;
55069;SDS011;40967;52.070;8.596;2022-08-18T05:30:50;22.17;;;16.35;;
55069;SDS011;40967;52.070;8.596;2022-08-18T05:33:16;21.67;;;16.40;;
55069;SDS011;40967;52.070;8.596;2022-08-18T05:35:42;21.58;;;16.02;;
55069;SDS011;40967;52.070;8.596;2022-08-18T05:41:01;20.25;;;15.63;;
55069;SDS011;40967;52.070;8.596;2022-08-18T05:43:36;23.30;;;16.70;;
55069;SDS011;40967;52.070;8.596;2022-08-18T05:46:04;17.00;;;13.48;;
55069;SDS011;40967;52.070;8.596;2022-08-18T05:48:31;16.83;;;12.77;;
55069;SDS011;40967;52.070;8.596;2022-08-18T05:50:57;15.90;;;12.27;;
55069;SDS011;40967;52.070;8.596;2022-08-18T05:53:26;13.75;;;10.65;;
55069;SDS011;40967;52.070;8.596;2022-08-18T05:56:13;14.52;;;10.68;;
55069;SDS011;40967;52.070;8.596;2022-08-18T05:59:08;22.77;;;16.10;;
55069;SDS011;40967;52.070;8.596;2022-08-18T06:01:39;22.77;;;16.93;;
55069;SDS011;40967;52.070;8.596;2022-08-18T06:06:38;23.55;;;17.33;;
55069;SDS011;40967;52.070;8.596;2022-08-18T06:09:12;22.30;;;16.92;;
55069;SDS011;40967;52.070;8.596;2022-08-18T06:11:48;15.20;;;11.82;;
55069;SDS011;40967;52.070;8.596;2022-08-18T06:14:14;12.50;;;9.82;;
55069;SDS011;40967;52.070;8.596;2022-08-18T06:33:25;11.82;;;9.38;;
55069;SDS011;40967;52.070;8.596;2022-08-18T06:35:58;11.30;;;8.93;;
55069;SDS011;40967;52.070;8.596;2022-08-18T06:38:56;10.75;;;8.50;;
55069;SDS011;40967;52.070;8.596;2022-08-18T06:41:34;9.27;;;7.03;;
55069;SDS011;40967;52.070;8.596;2022-08-18T06:44:07;8.23;;;6.53;;
55069;SDS011;40967;52.070;8.596;2022-08-18T06:52:33;11.43;;;8.43;;
55069;SDS011;40967;52.070;8.596;2022-08-18T06:55:02;8.70;;;6.47;;
55069;SDS011;40967;52.070;8.596;2022-08-18T06:57:37;11.57;;;9.13;;
55069;SDS011;40967;52.070;8.596;2022-08-18T07:02:49;9.53;;;7.33;;
55069;SDS011;40967;52.070;8.596;2022-08-18T07:05:37;10.95;;;8.82;;
55069;SDS011;40967;52.070;8.596;2022-08-18T07:08:28;15.77;;;11.93;;
55069;SDS011;40967;52.070;8.596;2022-08-18T07:11:09;11.93;;;9.55;;
55069;SDS011;40967;52.070;8.596;2022-08-18T07:13:36;11.35;;;8.98;;
55069;SDS011;40967;52.070;8.596;2022-08-18T07:16:14;10.40;;;8.48;;
55069;SDS011;40967;52.070;8.596;2022-08-18T07:18:52;18.45;;;14.45;;
55069;SDS011;40967;52.070;8.596;2022-08-18T07:21:25;15.20;;;12.03;;
55069;SDS011;40967;52.070;8.596;2022-08-18T07:23:58;18.67;;;14.55;;
55069;SDS011;40967;52.070;8.596;2022-08-18T07:32:34;15.63;;;12.32;;
55069;SDS011;40967;52.070;8.596;2022-08-18T07:35:06;18.00;;;14.25;;
55069;SDS011;40967;52.070;8.596;2022-08-18T07:37:35;13.43;;;11.02;;
55069;SDS011;40967;52.070;8.596;2022-08-18T07:40:25;11.00;;;8.68;;
55069;SDS011;40967;52.070;8.596;2022-08-18T07:45:51;15.52;;;11.85;;
55069;SDS011;40967;52.070;8.596;2022-08-18T07:48:26;11.45;;;8.88;;
55069;SDS011;40967;52.070;8.596;2022-08-18T07:56:48;13.85;;;11.02;;
55069;SDS011;40967;52.070;8.596;2022-08-18T08:02:24;8.57;;;6.72;;
55069;SDS011;40967;52.070;8.596;2022-08-18T08:08:29;10.07;;;7.60;;
55069;SDS011;40967;52.070;8.596;2022-08-18T08:11:33;10.50;;;8.23;;
55069;SDS011;40967;52.070;8.596;2022-08-18T08:17:09;10.95;;;8.32;;
55069;SDS011;40967;52.070;8.596;2022-08-18T08:22:41;13.05;;;9.90;;
55069;SDS011;40967;52.070;8.596;2022-08-18T08:25:25;12.35;;;9.90;;
55069;SDS011;40967;52.070;8.596;2022-08-18T08:33:35;15.63;;;13.18;;
55069;SDS011;40967;52.070;8.596;2022-08-18T08:41:07;11.87;;;8.97;;
55069;SDS011;40967;52.070;8.596;2022-08-18T08:43:43;18.00;;;14.83;;
55069;SDS011;40967;52.070;8.596;2022-08-18T08:46:13;13.75;;;11.30;;
55069;SDS011;40967;52.070;8.596;2022-08-18T08:51:53;11.77;;;9.18;;
55069;SDS011;40967;52.070;8.596;2022-08-18T08:54:24;8.98;;;6.97;;
55069;SDS011;40967;52.070;8.596;2022-08-18T08:56:51;15.13;;;12.45;;
55069;SDS011;40967;52.070;8.596;2022-08-18T08:59:20;14.48;;;11.60;;
55069;SDS011;40967;52.070;8.596;2022-08-18T09:01:53;9.52;;;8.05;;
55069;SDS011;40967;52.070;8.596;2022-08-18T09:04:27;7.57;;;5.93;;
55069;SDS011;40967;52.070;8.596;2022-08-18T09:23:30;8.63;;;6.63;;
55069;SDS011;40967;52.070;8.596;2022-08-18T09:26:20;7.57;;;5.60;;
55069;SDS011;40967;52.070;8.596;2022-08-18T09:28:57;10.80;;;8.80;;
55069;SDS011;40967;52.070;8.596;2022-08-18T09:31:26;17.40;;;14.27;;
55069;SDS011;40967;52.070;8.596;2022-08-18T09:42:10;18.23;;;14.13;;
55069;SDS011;40967;52.070;8.596;2022-08-18T09:44:59;13.43;;;10.27;;
55069;SDS011;40967;52.070;8.596;2022-08-18T09:49:55;16.43;;;12.70;;
55069;SDS011;40967;52.070;8.596;2022-08-18T09:55:35;17.37;;;13.37;;
55069;SDS011;40967;52.070;8.596;2022-08-18T09:58:11;14.23;;;11.18;;
55069;SDS011;40967;52.070;8.596;2022-08-18T10:00:44;14.90;;;12.15;;
55069;SDS011;40967;52.070;8.596;2022-08-18T10:03:17;18.85;;;14.80;;
55069;SDS011;40967;52.070;8.596;2022-08-18T10:06:02;13.57;;;10.32;;
55069;SDS011;40967;52.070;8.596;2022-08-18T10:08:41;13.05;;;10.35;;
55069;SDS011;40967;52.070;8.596;2022-08-18T10:11:52;10.95;;;8.57;;
55069;SDS011;40967;52.070;8.596;2022-08-18T10:14:33;10.43;;;7.82;;
55069;SDS011;40967;52.070;8.596;2022-08-18T10:22:52;6.75;;;5.28;;
55069;SDS011;40967;52.070;8.596;2022-08-18T10:25:30;5.03;;;3.90;;
55069;SDS011;40967;52.070;8.596;2022-08-18T10:27:55;7.55;;;5.60;;
55069;SDS011;40967;52.070;8.596;2022-08-18T10:32:59;7.35;;;5.38;;
55069;SDS011;40967;52.070;8.596;2022-08-18T10:38:09;8.15;;;6.25;;
55069;SDS011;40967;52.070;8.596;2022-08-18T10:40:35;12.10;;;9.05;;
55069;SDS011;40967;52.070;8.596;2022-08-18T10:43:10;8.70;;;7.13;;
55069;SDS011;40967;52.070;8.596;2022-08-18T10:45:46;9.17;;;6.80;;
55069;SDS011;40967;52.070;8.596;2022-08-18T10:48:18;8.65;;;6.90;;
55069;SDS011;40967;52.070;8.596;2022-08-18T11:06:46;5.13;;;3.78;;
55069;SDS011;40967;52.070;8.596;2022-08-18T11:09:20;4.47;;;3.20;;
55069;SDS011;40967;52.070;8.596;2022-08-18T11:11:50;5.43;;;3.77;;
55069;SDS011;40967;52.070;8.596;2022-08-18T11:20:10;4.13;;;2.80;;
55069;SDS011;40967;52.070;8.596;2022-08-18T11:22:43;4.10;;;2.60;;
55069;SDS011;40967;52.070;8.596;2022-08-18T11:25:21;3.88;;;2.75;;
55069;SDS011;40967;52.070;8.596;2022-08-18T11:27:49;4.03;;;2.90;;
55069;SDS011;40967;52.070;8.596;2022-08-18T11:30:15;4.38;;;3.13;;
55069;SDS011;40967;52.070;8.596;2022-08-18T11:32:41;3.45;;;2.40;;
55069;SDS011;40967;52.070;8.596;2022-08-18T11:35:14;5.05;;;3.63;;
55069;SDS011;40967;52.070;8.596;2022-08-18T11:37:53;6.50;;;4.75;;
55069;SDS011;40967;52.070;8.596;2022-08-18T11:43:04;5.57;;;4.10;;
55069;SDS011;40967;52.070;8.596;2022-08-18T11:50:33;9.13;;;7.33;;
55069;SDS011;40967;52.070;8.596;2022-08-18T11:53:13;8.03;;;5.83;;
55069;SDS011;40967;52.070;8.596;2022-08-18T11:56:01;6.68;;;5.00;;
55069;SDS011;40967;52.070;8.596;2022-08-18T12:01:28;7.93;;;5.95;;
55069;SDS011;40967;52.070;8.596;2022-08-18T12:06:38;11.07;;;7.97;;
55069;SDS011;40967;52.070;8.596;2022-08-18T12:09:15;6.90;;;5.45;;
55069;SDS011;40967;52.070;8.596;2022-08-18T12:11:49;5.45;;;4.20;;
55069;SDS011;40967;52.070;8.596;2022-08-18T12:14:19;5.70;;;4.05;;
55069;SDS011;40967;52.070;8.596;2022-08-18T12:16:47;6.80;;;5.13;;
55069;SDS011;40967;52.070;8.596;2022-08-18T12:19:13;6.78;;;4.97;;
55069;SDS011;40967;52.070;8.596;2022-08-18T12:21:40;9.85;;;6.90;;
55069;SDS011;40967;52.070;8.596;2022-08-18T12:24:10;7.53;;;5.70;;
55069;SDS011;40967;52.070;8.596;2022-08-18T12:26:45;5.25;;;4.00;;
55069;SDS011;40967;52.070;8.596;2022-08-18T12:29:10;5.30;;;3.67;;
55069;SDS011;40967;52.070;8.596;2022-08-18T12:31:36;4.90;;;3.47;;
55069;SDS011;40967;52.070;8.596;2022-08-18T12:34:01;4.27;;;3.27;;
55069;SDS011;40967;52.070;8.596;2022-08-18T12:36:28;4.60;;;3.40;;
55069;SDS011;40967;52.070;8.596;2022-08-18T12:38:54;5.22;;;3.78;;
55069;SDS011;40967;52.070;8.596;2022-08-18T12:41:19;7.15;;;5.35;;
55069;SDS011;40967;52.070;8.596;2022-08-18T12:43:45;7.47;;;5.50;;
55069;SDS011;40967;52.070;8.596;2022-08-18T12:46:11;5.93;;;4.60;;
55069;SDS011;40967;52.070;8.596;2022-08-18T12:48:37;5.50;;;3.90;;
55069;SDS011;40967;52.070;8.596;2022-08-18T12:51:03;6.07;;;4.40;;
55069;SDS011;40967;52.070;8.596;2022-08-18T12:53:28;5.60;;;3.93;;
55069;SDS011;40967;52.070;8.596;2022-08-18T12:55:54;4.75;;;3.40;;
55069;SDS011;40967;52.070;8.596;2022-08-18T12:58:20;10.23;;;7.90;;
55069;SDS011;40967;52.070;8.596;2022-08-18T13:00:45;9.00;;;7.28;;
55069;SDS011;40967;52.070;8.596;2022-08-18T13:03:12;7.28;;;5.55;;
55069;SDS011;40967;52.070;8.596;2022-08-18T13:05:38;6.28;;;4.60;;
55069;SDS011;40967;52.070;8.596;2022-08-18T13:08:04;5.18;;;4.03;;
55069;SDS011;40967;52.070;8.596;2022-08-18T13:10:33;5.03;;;3.67;;
55069;SDS011;40967;52.070;8.596;2022-08-18T13:12:59;5.13;;;3.90;;
55069;SDS011;40967;52.070;8.596;2022-08-18T13:15:24;5.83;;;4.20;;
55069;SDS011;40967;52.070;8.596;2022-08-18T13:17:50;5.10;;;3.70;;
55069;SDS011;40967;52.070;8.596;2022-08-18T13:20:15;3.80;;;2.60;;
55069;SDS011;40967;52.070;8.596;2022-08-18T13:22:41;3.38;;;2.20;;
55069;SDS011;40967;52.070;8.596;2022-08-18T13:25:11;3.83;;;2.65;;
55069;SDS011;40967;52.070;8.596;2022-08-18T13:27:38;4.43;;;3.22;;
55069;SDS011;40967;52.070;8.596;2022-08-18T13:30:05;4.90;;;3.40;;
55069;SDS011;40967;52.070;8.596;2022-08-18T13:32:33;4.72;;;3.40;;
55069;SDS011;40967;52.070;8.596;2022-08-18T13:34:59;5.90;;;4.70;;
55069;SDS011;40967;52.070;8.596;2022-08-18T13:37:25;5.10;;;3.88;;
55069;SDS011;40967;52.070;8.596;2022-08-18T13:39:52;5.88;;;4.63;;
55069;SDS011;40967;52.070;8.596;2022-08-18T13:42:18;4.85;;;3.78;;
55069;SDS011;40967;52.070;8.596;2022-08-18T13:44:43;6.63;;;4.83;;
55069;SDS011;40967;52.070;8.596;2022-08-18T13:47:08;5.67;;;4.30;;
55069;SDS011;40967;52.070;8.596;2022-08-18T13:49:34;5.35;;;4.05;;
55069;SDS011;40967;52.070;8.596;2022-08-18T13:51:59;4.60;;;3.70;;
55069;SDS011;40967;52.070;8.596;2022-08-18T13:54:26;4.97;;;3.47;;
55069;SDS011;40967;52.070;8.596;2022-08-18T13:56:53;4.90;;;3.60;;
55069;SDS011;40967;52.070;8.596;2022-08-18T13:59:20;4.80;;;3.42;;
55069;SDS011;40967;52.070;8.596;2022-08-18T14:01:47;5.23;;;3.77;;
55069;SDS011;40967;52.070;8.596;2022-08-18T14:04:13;3.67;;;2.72;;
55069;SDS011;40967;52.070;8.596;2022-08-18T14:06:40;3.00;;;2.20;;
55069;SDS011;40967;52.070;8.596;2022-08-18T14:09:06;4.80;;;3.43;;
55069;SDS011;40967;52.070;8.596;2022-08-18T14:11:32;3.92;;;2.72;;
55069;SDS011;40967;52.070;8.596;2022-08-18T14:13:59;5.10;;;3.75;;
55069;SDS011;40967;52.070;8.596;2022-08-18T14:16:25;3.63;;;2.90;;
55069;SDS011;40967;52.070;8.596;2022-08-18T14:18:51;3.70;;;2.70;;
55069;SDS011;40967;52.070;8.596;2022-08-18T14:21:40;4.22;;;3.10;;
55069;SDS011;40967;52.070;8.596;2022-08-18T14:24:27;4.80;;;3.47;;
55069;SDS011;40967;52.070;8.596;2022-08-18T14:27:11;5.78;;;4.35;;
55069;SDS011;40967;52.070;8.596;2022-08-18T14:29:36;5.80;;;4.13;;
55069;SDS011;40967;52.070;8.596;2022-08-18T14:32:02;5.25;;;3.97;;
55069;SDS011;40967;52.070;8.596;2022-08-18T14:34:28;4.93;;;3.67;;
55069;SDS011;40967;52.070;8.596;2022-08-18T14:36:54;5.27;;;3.80;;
55069;SDS011;40967;52.070;8.596;2022-08-18T14:39:19;4.97;;;3.87;;
55069;SDS011;40967;52.070;8.596;2022-08-18T14:41:44;4.30;;;3.40;;
55069;SDS011;40967;52.070;8.596;2022-08-18T14:44:10;4.50;;;3.10;;
55069;SDS011;40967;52.070;8.596;2022-08-18T14:46:37;3.70;;;2.90;;
55069;SDS011;40967;52.070;8.596;2022-08-18T14:49:03;2.77;;;2.07;;
55069;SDS011;40967;52.070;8.596;2022-08-18T14:51:29;3.60;;;2.00;;
55069;SDS011;40967;52.070;8.596;2022-08-18T14:53:55;2.72;;;1.88;;
55069;SDS011;40967;52.070;8.596;2022-08-18T14:56:20;3.07;;;1.73;;
55069;SDS011;40967;52.070;8.596;2022-08-18T14:58:45;2.30;;;1.60;;
55069;SDS011;40967;52.070;8.596;2022-08-18T15:01:11;2.33;;;1.60;;
55069;SDS011;40967;52.070;8.596;2022-08-18T15:03:37;2.33;;;1.55;;
55069;SDS011;40967;52.070;8.596;2022-08-18T15:06:04;4.97;;;3.63;;
55069;SDS011;40967;52.070;8.596;2022-08-18T15:08:31;3.22;;;2.40;;
55069;SDS011;40967;52.070;8.596;2022-08-18T15:10:59;3.50;;;2.42;;
55069;SDS011;40967;52.070;8.596;2022-08-18T15:13:24;2.33;;;1.77;;
55069;SDS011;40967;52.070;8.596;2022-08-18T15:15:50;2.73;;;1.90;;
55069;SDS011;40967;52.070;8.596;2022-08-18T15:18:15;1.97;;;1.40;;
55069;SDS011;40967;52.070;8.596;2022-08-18T15:20:42;2.30;;;1.50;;
55069;SDS011;40967;52.070;8.596;2022-08-18T15:23:27;1.92;;;1.40;;
55069;SDS011;40967;52.070;8.596;2022-08-18T15:26:11;2.03;;;1.50;;
55069;SDS011;40967;52.070;8.596;2022-08-18T15:28:37;2.00;;;1.48;;
55069;SDS011;40967;52.070;8.596;2022-08-18T15:31:03;1.65;;;1.25;;
55069;SDS011;40967;52.070;8.596;2022-08-18T15:33:29;1.50;;;1.20;;
55069;SDS011;40967;52.070;8.596;2022-08-18T15:35:55;1.50;;;1.15;;
55069;SDS011;40967;52.070;8.596;2022-08-18T15:38:21;1.70;;;1.20;;
55069;SDS011;40967;52.070;8.596;2022-08-18T15:40:56;2.30;;;1.60;;
55069;SDS011;40967;52.070;8.596;2022-08-18T15:43:25;2.42;;;1.80;;
55069;SDS011;40967;52.070;8.596;2022-08-18T15:45:52;1.60;;;1.35;;
55069;SDS011;40967;52.070;8.596;2022-08-18T15:48:18;1.50;;;1.20;;
55069;SDS011;40967;52.070;8.596;2022-08-18T15:50:46;1.40;;;1.10;;
55069;SDS011;40967;52.070;8.596;2022-08-18T15:53:14;1.00;;;0.90;;
55069;SDS011;40967;52.070;8.596;2022-08-18T15:55:42;1.25;;;1.10;;
55069;SDS011;40967;52.070;8.596;2022-08-18T15:58:09;1.43;;;1.00;;
55069;SDS011;40967;52.070;8.596;2022-08-18T16:00:35;1.20;;;0.95;;
55069;SDS011;40967;52.070;8.596;2022-08-18T16:03:03;0.93;;;0.80;;
55069;SDS011;40967;52.070;8.596;2022-08-18T16:05:32;1.10;;;0.90;;
55069;SDS011;40967;52.070;8.596;2022-08-18T16:08:00;1.57;;;1.10;;
55069;SDS011;40967;52.070;8.596;2022-08-18T16:10:28;1.10;;;0.98;;
55069;SDS011;40967;52.070;8.596;2022-08-18T16:12:56;1.40;;;1.00;;
55069;SDS011;40967;52.070;8.596;2022-08-18T16:15:22;1.17;;;0.98;;
55069;SDS011;40967;52.070;8.596;2022-08-18T16:17:50;1.85;;;1.27;;
55069;SDS011;40967;52.070;8.596;2022-08-18T16:20:18;1.58;;;1.05;;
55069;SDS011;40967;52.070;8.596;2022-08-18T16:22:45;1.90;;;1.20;;
55069;SDS011;40967;52.070;8.596;2022-08-18T16:25:12;2.30;;;1.50;;
55069;SDS011;40967;52.070;8.596;2022-08-18T16:27:38;1.38;;;1.02;;
55069;SDS011;40967;52.070;8.596;2022-08-18T16:30:26;1.20;;;1.00;;
55069;SDS011;40967;52.070;8.596;2022-08-18T16:32:52;1.38;;;1.00;;
55069;SDS011;40967;52.070;8.596;2022-08-18T16:35:18;1.15;;;0.90;;
55069;SDS011;40967;52.070;8.596;2022-08-18T16:37:47;1.00;;;0.83;;
55069;SDS011;40967;52.070;8.596;2022-08-18T16:40:14;1.00;;;0.80;;
55069;SDS011;40967;52.070;8.596;2022-08-18T16:42:40;1.23;;;1.00;;
55069;SDS011;40967;52.070;8.596;2022-08-18T16:45:06;0.80;;;0.70;;
55069;SDS011;40967;52.070;8.596;2022-08-18T16:47:33;1.08;;;0.85;;
55069;SDS011;40967;52.070;8.596;2022-08-18T16:50:07;2.30;;;1.40;;
55069;SDS011;40967;52.070;8.596;2022-08-18T16:52:34;1.30;;;1.10;;
55069;SDS011;40967;52.070;8.596;2022-08-18T16:54:59;1.60;;;1.10;;
55069;SDS011;40967;52.070;8.596;2022-08-18T16:57:25;1.20;;;1.00;;
55069;SDS011;40967;52.070;8.596;2022-08-18T17:00:09;1.25;;;1.00;;
55069;SDS011;40967;52.070;8.596;2022-08-18T17:02:53;1.80;;;1.13;;
55069;SDS011;40967;52.070;8.596;2022-08-18T17:05:37;2.08;;;1.33;;
55069;SDS011;40967;52.070;8.596;2022-08-18T17:08:03;1.73;;;1.33;;
55069;SDS011;40967;52.070;8.596;2022-08-18T17:10:29;1.93;;;1.30;;
55069;SDS011;40967;52.070;8.596;2022-08-18T17:12:56;2.67;;;1.77;;
55069;SDS011;40967;52.070;8.596;2022-08-18T17:15:21;2.65;;;1.83;;
55069;SDS011;40967;52.070;8.596;2022-08-18T17:17:46;1.90;;;1.40;;
55069;SDS011;40967;52.070;8.596;2022-08-18T17:20:12;2.03;;;1.40;;
55069;SDS011;40967;52.070;8.596;2022-08-18T17:22:37;1.73;;;1.23;;
55069;SDS011;40967;52.070;8.596;2022-08-18T17:25:03;1.27;;;1.00;;